createdAt,value
2023-01-21T00:01:09.703Z,98506.56
2023-01-21T00:03:36.300Z,98499.72
2023-01-21T00:06:04.251Z,98512.31
2023-01-21T00:08:30.687Z,98512.19
2023-01-21T00:10:57.110Z,98514.16
2023-01-21T00:13:23.671Z,98511.69
2023-01-21T00:15:50.349Z,98517.00
2023-01-21T00:18:16.826Z,98519.25
2023-01-21T00:20:48.633Z,98522.41
2023-01-21T00:23:15.093Z,98540.34
2023-01-21T00:25:42.013Z,98553.94
2023-01-21T00:28:08.495Z,98543.44
2023-01-21T00:30:36.856Z,98550.22
2023-01-21T00:33:07.735Z,98555.00
2023-01-21T00:35:34.267Z,98558.66
2023-01-21T00:38:00.686Z,98560.72
2023-01-21T00:40:27.249Z,98559.81
2023-01-21T00:42:53.691Z,98552.75
2023-01-21T00:45:20.218Z,98547.88
2023-01-21T00:47:58.195Z,98541.47
2023-01-21T00:50:24.666Z,98541.09
2023-01-21T00:52:51.098Z,98530.88
2023-01-21T00:55:17.593Z,98540.00
2023-01-21T00:57:44.030Z,98538.84
2023-01-21T01:00:13.050Z,98531.63
2023-01-21T01:02:39.539Z,98533.38
2023-01-21T01:05:08.328Z,98543.59
2023-01-21T01:07:35.221Z,98558.88
2023-01-21T01:10:01.642Z,98564.72
2023-01-21T01:12:28.814Z,98571.78
2023-01-21T01:15:05.407Z,98557.97
2023-01-21T01:17:31.977Z,98558.50
2023-01-21T01:19:58.453Z,98566.38
2023-01-21T01:22:24.988Z,98578.66
2023-01-21T01:24:51.431Z,98585.16
2023-01-21T01:27:17.859Z,98579.44
2023-01-21T01:29:44.306Z,98548.66
2023-01-21T01:32:10.782Z,98582.56
2023-01-21T01:34:37.193Z,98576.22
2023-01-21T01:37:04.203Z,98575.81
2023-01-21T01:39:31.447Z,98577.13
2023-01-21T01:42:04.488Z,98581.00
2023-01-21T01:44:55.869Z,98574.16
2023-01-21T01:47:27.820Z,98572.31
2023-01-21T01:49:55.247Z,98579.66
2023-01-21T01:52:22.908Z,98573.00
2023-01-21T01:54:54.719Z,98571.03
2023-01-21T01:57:29.584Z,98573.13
2023-01-21T01:59:57.064Z,98580.75
2023-01-21T02:02:23.510Z,98582.19
2023-01-21T02:05:00.291Z,98575.97
2023-01-21T02:07:29.180Z,98565.44
2023-01-21T02:09:56.441Z,98565.16
2023-01-21T02:12:23.243Z,98571.03
2023-01-21T02:14:50.573Z,98579.22
2023-01-21T02:18:00.180Z,98574.91
2023-01-21T02:20:48.198Z,98579.66
2023-01-21T02:23:40.178Z,98573.63
2023-01-21T02:26:12.554Z,98566.41
2023-01-21T02:29:10.775Z,98579.56
2023-01-21T02:32:08.696Z,98574.69
2023-01-21T02:35:02.865Z,98575.41
2023-01-21T02:37:40.825Z,98573.31
2023-01-21T02:40:13.518Z,98575.78
2023-01-21T02:43:08.488Z,98577.06
2023-01-21T02:45:53.410Z,98587.09
2023-01-21T02:48:47.731Z,98599.22
2023-01-21T02:51:21.946Z,98613.06
2023-01-21T02:53:48.437Z,98628.66
2023-01-21T02:56:21.861Z,98622.59
2023-01-21T02:58:54.950Z,98628.38
2023-01-21T03:01:55.652Z,98628.75
2023-01-21T03:04:33.273Z,98634.06
2023-01-21T03:07:13.027Z,98640.88
2023-01-21T03:09:40.168Z,98646.06
2023-01-21T03:12:25.595Z,98651.97
2023-01-21T03:15:27.908Z,98652.50
2023-01-21T03:18:31.284Z,98659.59
2023-01-21T03:21:07.274Z,98657.59
2023-01-21T03:23:39.015Z,98670.84
2023-01-21T03:26:07.675Z,98676.09
2023-01-21T03:28:39.717Z,98689.09
2023-01-21T03:31:11.695Z,98696.63
2023-01-21T03:33:42.371Z,98706.28
2023-01-21T03:36:22.324Z,98703.00
2023-01-21T03:38:52.562Z,98707.97
2023-01-21T03:41:27.252Z,98713.63
2023-01-21T03:43:53.794Z,98723.00
2023-01-21T03:46:50.001Z,98724.31
2023-01-21T03:49:29.857Z,98724.03
2023-01-21T03:51:59.903Z,98729.22
2023-01-21T03:54:33.094Z,98736.38
2023-01-21T03:56:59.542Z,98730.88
2023-01-21T03:59:25.971Z,98735.88
2023-01-21T04:01:52.421Z,98727.47
2023-01-21T04:04:19.050Z,98745.19
2023-01-21T04:06:45.460Z,98745.13
2023-01-21T04:09:12.011Z,98738.41
2023-01-21T04:11:38.411Z,98747.16
2023-01-21T04:14:04.946Z,98751.28
2023-01-21T04:16:31.477Z,98758.75
2023-01-21T04:18:57.915Z,98748.78
2023-01-21T04:21:37.004Z,98753.88
2023-01-21T04:24:03.758Z,98757.94
2023-01-21T04:26:30.192Z,98760.22
2023-01-21T04:28:56.629Z,98761.53
2023-01-21T04:31:23.078Z,98759.16
2023-01-21T04:33:49.526Z,98763.00
2023-01-21T04:36:15.935Z,98776.47
2023-01-21T04:38:42.374Z,98781.09
2023-01-21T04:41:08.838Z,98780.50
2023-01-21T04:43:35.271Z,98786.13
2023-01-21T04:46:02.465Z,98784.53
2023-01-21T04:48:38.328Z,98786.94
2023-01-21T04:51:06.542Z,98782.25
2023-01-21T04:53:33.063Z,98778.09
2023-01-21T04:55:59.548Z,98788.31
2023-01-21T04:58:27.413Z,98780.69
2023-01-21T05:00:55.387Z,98792.50
2023-01-21T05:03:21.872Z,98786.06
2023-01-21T05:05:48.480Z,98793.69
2023-01-21T05:08:14.981Z,98781.41
2023-01-21T05:10:41.383Z,98783.66
2023-01-21T05:13:07.804Z,98805.47
2023-01-21T05:15:40.685Z,98792.72
2023-01-21T05:18:07.205Z,98800.91
2023-01-21T05:20:33.593Z,98803.88
2023-01-21T05:23:00.053Z,98786.78
2023-01-21T05:25:26.513Z,98797.88
2023-01-21T05:27:54.303Z,98815.47
2023-01-21T05:30:21.246Z,98802.94
2023-01-21T05:32:51.934Z,98829.41
2023-01-21T05:35:20.195Z,98834.34
2023-01-21T05:37:47.913Z,98825.56
2023-01-21T05:40:16.420Z,98818.47
2023-01-21T05:42:45.668Z,98806.31
2023-01-21T05:45:12.414Z,98821.09
2023-01-21T05:47:39.011Z,98826.59
2023-01-21T05:50:06.375Z,98820.13
2023-01-21T05:52:32.854Z,98829.19
2023-01-21T05:55:02.114Z,98822.38
2023-01-21T05:57:30.050Z,98828.56
2023-01-21T05:59:56.591Z,98830.13
2023-01-21T06:02:23.371Z,98839.66
2023-01-21T06:04:49.989Z,98833.38
2023-01-21T06:07:16.481Z,98836.59
2023-01-21T06:09:43.778Z,98828.19
2023-01-21T06:12:10.357Z,98826.28
2023-01-21T06:14:36.902Z,98838.69
2023-01-21T06:17:04.146Z,98829.09
2023-01-21T06:19:30.565Z,98836.22
2023-01-21T06:21:57.776Z,98836.72
2023-01-21T06:24:24.217Z,98834.25
2023-01-21T06:26:50.684Z,98861.09
2023-01-21T06:29:17.171Z,98852.16
2023-01-21T06:31:43.860Z,98846.34
2023-01-21T06:34:12.681Z,98847.34
2023-01-21T06:36:42.581Z,98848.28
2023-01-21T06:39:10.621Z,98855.50
2023-01-21T06:41:37.072Z,98856.91
2023-01-21T06:44:04.577Z,98866.69
2023-01-21T06:46:31.067Z,98873.19
2023-01-21T06:48:59.288Z,98867.09
2023-01-21T06:51:26.023Z,98872.91
2023-01-21T06:53:52.733Z,98872.94
2023-01-21T06:56:19.422Z,98881.47
2023-01-21T06:58:46.113Z,98884.06
2023-01-21T07:01:13.148Z,98884.63
2023-01-21T07:03:39.736Z,98880.94
2023-01-21T07:06:06.588Z,98886.78
2023-01-21T07:08:33.009Z,98889.78
2023-01-21T07:10:59.511Z,98889.06
2023-01-21T07:13:29.478Z,98894.84
2023-01-21T07:16:04.031Z,98880.59
2023-01-21T07:18:31.737Z,98896.56
2023-01-21T07:20:58.232Z,98902.31
2023-01-21T07:23:25.147Z,98913.88
2023-01-21T07:25:51.683Z,98915.69
2023-01-21T07:28:18.339Z,98930.06
2023-01-21T07:30:45.379Z,98929.66
2023-01-21T07:33:11.859Z,98938.09
2023-01-21T07:35:38.318Z,98939.78
2023-01-21T07:38:04.910Z,98945.38
2023-01-21T07:40:31.502Z,98944.19
2023-01-21T07:42:57.985Z,98949.44
2023-01-21T07:45:24.766Z,98950.16
2023-01-21T07:47:51.267Z,98957.16
2023-01-21T07:50:17.722Z,98953.28
2023-01-21T07:52:44.152Z,98951.09
2023-01-21T07:55:12.774Z,98955.88
2023-01-21T07:57:39.540Z,98955.94
2023-01-21T08:00:07.044Z,98962.78
2023-01-21T08:02:33.716Z,98954.56
2023-01-21T08:05:00.195Z,98959.13
2023-01-21T08:07:26.629Z,98965.72
2023-01-21T08:09:53.112Z,98947.06
2023-01-21T08:12:19.565Z,98951.97
2023-01-21T08:14:45.960Z,98946.81
2023-01-21T08:17:12.431Z,98944.28
2023-01-21T08:19:38.837Z,98946.53
2023-01-21T08:22:05.664Z,98950.69
2023-01-21T08:24:32.202Z,98948.63
2023-01-21T08:27:00.041Z,98953.97
2023-01-21T08:29:27.389Z,98958.41
2023-01-21T08:31:54.019Z,98971.31
2023-01-21T08:34:23.867Z,98975.88
2023-01-21T08:36:50.400Z,98975.06
2023-01-21T08:39:16.840Z,98972.09
2023-01-21T08:41:44.273Z,98971.97
2023-01-21T08:44:10.691Z,98965.16
2023-01-21T08:46:37.163Z,98975.06
2023-01-21T08:49:03.855Z,98985.44
2023-01-21T08:51:30.268Z,98978.19
2023-01-21T08:53:56.737Z,98969.06
2023-01-21T08:56:23.290Z,98972.31
2023-01-21T08:58:55.214Z,98986.66
2023-01-21T09:01:21.899Z,98998.13
2023-01-21T09:03:48.495Z,98991.59
2023-01-21T09:06:15.397Z,98995.94
2023-01-21T09:08:42.166Z,99002.09
2023-01-21T09:11:10.092Z,99004.19
2023-01-21T09:13:38.645Z,99005.00
2023-01-21T09:16:14.340Z,99006.88
2023-01-21T09:18:41.490Z,99016.53
2023-01-21T09:21:08.234Z,99018.69
2023-01-21T09:23:36.397Z,99011.69
2023-01-21T09:26:20.789Z,99000.03
2023-01-21T09:28:53.069Z,99021.06
2023-01-21T09:31:26.948Z,99019.78
2023-01-21T09:33:56.905Z,99030.81
2023-01-21T09:36:26.179Z,99017.53
2023-01-21T09:38:52.723Z,99015.38
2023-01-21T09:41:30.344Z,99005.59
2023-01-21T09:44:14.857Z,99008.91
2023-01-21T09:47:04.882Z,99020.75
2023-01-21T09:49:34.666Z,99014.94
2023-01-21T09:52:39.314Z,99011.44
2023-01-21T09:55:13.979Z,99008.00
2023-01-21T09:58:08.319Z,99011.09
2023-01-21T10:00:55.090Z,99009.13
2023-01-21T10:03:38.451Z,98999.84
2023-01-21T10:06:26.946Z,98997.00
2023-01-21T10:09:32.353Z,98993.63
2023-01-21T10:12:28.191Z,98996.59
2023-01-21T10:15:33.231Z,98997.72
2023-01-21T10:18:07.377Z,99002.19
2023-01-21T10:20:45.756Z,99012.44
2023-01-21T10:23:22.532Z,99012.78
2023-01-21T10:25:50.386Z,99013.00
2023-01-21T10:28:22.791Z,99017.78
2023-01-21T10:30:55.017Z,99006.22
2023-01-21T10:33:26.599Z,99012.78
2023-01-21T10:36:02.059Z,99013.81
2023-01-21T10:38:41.375Z,99014.63
2023-01-21T10:41:37.535Z,99019.44
2023-01-21T10:44:30.025Z,99016.19
2023-01-21T10:47:18.632Z,99019.25
2023-01-21T10:50:14.637Z,99016.88
2023-01-21T10:52:51.637Z,99013.66
2023-01-21T10:55:41.190Z,99023.00
2023-01-21T10:58:30.532Z,99010.22
2023-01-21T11:01:02.099Z,99010.75
2023-01-21T11:03:41.224Z,99021.69
2023-01-21T11:06:12.139Z,99006.53
2023-01-21T11:08:39.758Z,99013.50
2023-01-21T11:11:08.493Z,99021.91
2023-01-21T11:13:36.410Z,99024.50
2023-01-21T11:16:04.448Z,99021.91
2023-01-21T11:18:33.141Z,99023.59
2023-01-21T11:21:03.571Z,99026.69
2023-01-21T11:23:35.222Z,99019.34
2023-01-21T11:26:19.143Z,99018.50
2023-01-21T11:28:46.406Z,99028.06
2023-01-21T11:31:14.263Z,99024.53
2023-01-21T11:33:43.027Z,99018.25
2023-01-21T11:36:14.419Z,99023.25
2023-01-21T11:38:42.333Z,99021.31
2023-01-21T11:41:11.792Z,99016.63
2023-01-21T11:43:49.922Z,99018.63
2023-01-21T11:46:26.847Z,99025.63
2023-01-21T11:49:08.423Z,99018.97
2023-01-21T11:51:36.132Z,99024.63
2023-01-21T11:54:13.278Z,99029.03
2023-01-21T11:56:43.282Z,99033.78
2023-01-21T11:59:21.674Z,99024.31
2023-01-21T12:02:19.557Z,99038.25
2023-01-21T12:05:12.552Z,99027.53
2023-01-21T12:07:41.869Z,99025.22
2023-01-21T12:10:30.514Z,99027.38
2023-01-21T12:13:14.896Z,99028.81
2023-01-21T12:15:53.259Z,99012.97
2023-01-21T12:19:03.134Z,99024.38
2023-01-21T12:21:42.703Z,99026.59
2023-01-21T12:24:39.873Z,99018.63
2023-01-21T12:27:28.573Z,99033.25
2023-01-21T12:30:15.143Z,99023.38
2023-01-21T12:32:56.716Z,99035.78
2023-01-21T12:35:47.654Z,99022.16
2023-01-21T12:38:21.229Z,99031.19
2023-01-21T12:41:02.756Z,99025.69
2023-01-21T12:43:34.590Z,99023.81
2023-01-21T12:46:10.812Z,99029.81
2023-01-21T12:48:48.896Z,99030.28
2023-01-21T12:53:50.932Z,99034.84
2023-01-21T12:56:36.195Z,99030.63
2023-01-21T12:59:14.244Z,99030.63
2023-01-21T13:02:08.768Z,99037.44
2023-01-21T13:04:53.512Z,99020.00
2023-01-21T13:07:30.076Z,99031.34
2023-01-21T13:10:19.598Z,99014.41
2023-01-21T13:13:03.174Z,99029.94
2023-01-21T13:15:36.598Z,99040.50
2023-01-21T13:18:13.008Z,99039.91
2023-01-21T13:20:47.662Z,99037.00
2023-01-21T13:23:26.914Z,99037.16
2023-01-21T13:26:23.001Z,99040.59
2023-01-21T13:29:14.190Z,99037.16
2023-01-21T13:31:48.453Z,99045.91
2023-01-21T13:34:52.648Z,99036.31
2023-01-21T13:37:29.718Z,99037.75
2023-01-21T13:40:39.440Z,99037.94
2023-01-21T13:43:54.885Z,99040.69
2023-01-21T13:46:39.642Z,99029.44
2023-01-21T13:49:19.986Z,99042.34
2023-01-21T13:51:59.356Z,99049.25
2023-01-21T13:55:00.351Z,99035.84
2023-01-21T13:57:38.793Z,99017.25
2023-01-21T14:00:34.662Z,99027.50
2023-01-21T14:03:01.221Z,99034.25
2023-01-21T14:05:39.855Z,99034.84
2023-01-21T14:08:32.212Z,99038.81
2023-01-21T14:11:12.527Z,99046.47
2023-01-21T14:14:19.454Z,99037.91
2023-01-21T14:17:19.423Z,99037.59
2023-01-21T14:20:05.438Z,99035.72
2023-01-21T14:22:42.124Z,99035.53
2023-01-21T14:28:21.937Z,99028.88
2023-01-21T14:31:02.442Z,99027.34
2023-01-21T14:33:48.328Z,99031.47
2023-01-21T14:36:23.952Z,99022.72
2023-01-21T14:39:04.239Z,99028.94
2023-01-21T14:42:04.825Z,99025.81
2023-01-21T14:44:40.416Z,99026.28
2023-01-21T14:47:14.777Z,99017.06
2023-01-21T14:49:48.303Z,99022.63
2023-01-21T14:52:19.057Z,99026.38
2023-01-21T14:54:46.837Z,99026.22
2023-01-21T14:57:49.682Z,99028.88
2023-01-21T15:00:18.806Z,99011.59
2023-01-21T15:02:47.986Z,99025.63
2023-01-21T15:05:27.869Z,99023.69
2023-01-21T15:08:06.363Z,99014.88
2023-01-21T15:10:40.378Z,99014.75
2023-01-21T15:13:26.785Z,99014.31
2023-01-21T15:16:31.196Z,99013.56
2023-01-21T15:19:03.549Z,99028.13
2023-01-21T15:21:42.400Z,99009.72
2023-01-21T15:24:37.312Z,99012.94
2023-01-21T15:27:20.019Z,99013.28
2023-01-21T15:30:19.029Z,99017.31
2023-01-21T15:32:49.234Z,99024.63
2023-01-21T15:35:32.401Z,98991.81
2023-01-21T15:38:03.692Z,99019.69
2023-01-21T15:40:41.268Z,99023.66
2023-01-21T15:43:20.555Z,99027.56
2023-01-21T15:46:27.043Z,99026.50
2023-01-21T15:49:20.939Z,99018.50
2023-01-21T15:52:08.986Z,99007.91
2023-01-21T15:54:50.268Z,98999.81
2023-01-21T15:57:29.642Z,99028.72
2023-01-21T16:00:10.829Z,99029.44
2023-01-21T16:02:58.056Z,99029.94
2023-01-21T16:05:36.553Z,99014.03
2023-01-21T16:08:17.021Z,99011.38
2023-01-21T16:11:06.927Z,99011.16
2023-01-21T16:13:33.914Z,99015.84
2023-01-21T16:16:34.377Z,99013.19
2023-01-21T16:19:12.196Z,99011.25
2023-01-21T16:21:42.850Z,99017.31
2023-01-21T16:24:17.265Z,99008.94
2023-01-21T16:26:44.227Z,99009.81
2023-01-21T16:29:15.529Z,98969.88
2023-01-21T16:32:00.108Z,98984.22
2023-01-21T16:34:41.309Z,98970.44
2023-01-21T16:37:14.094Z,98987.50
2023-01-21T16:39:43.014Z,98987.97
2023-01-21T16:42:38.247Z,98981.41
2023-01-21T16:45:27.374Z,98945.25
2023-01-21T16:47:59.442Z,98957.72
2023-01-21T16:50:28.783Z,98963.63
2023-01-21T16:52:57.439Z,98964.94
2023-01-21T16:55:26.738Z,98960.81
2023-01-21T16:57:56.015Z,98961.56
2023-01-21T17:00:25.974Z,98960.22
2023-01-21T17:02:52.856Z,98954.75
2023-01-21T17:05:20.273Z,98944.41
2023-01-21T17:07:56.000Z,98913.84
2023-01-21T17:10:27.648Z,98919.06
2023-01-21T17:12:59.515Z,98941.56
2023-01-21T17:15:38.532Z,98933.16
2023-01-21T17:18:09.043Z,98910.69
2023-01-21T17:20:42.292Z,98924.16
2023-01-21T17:23:19.862Z,98924.13
2023-01-21T17:25:53.919Z,98924.28
2023-01-21T17:28:31.523Z,98916.72
2023-01-21T17:31:17.462Z,98904.03
2023-01-21T17:33:44.584Z,98898.28
2023-01-21T17:36:16.121Z,98900.91
2023-01-21T17:38:45.332Z,98900.56
2023-01-21T17:41:26.166Z,98939.91
2023-01-21T17:43:58.492Z,98942.09
2023-01-21T17:46:25.236Z,98937.81
2023-01-21T17:48:55.948Z,98955.72
2023-01-21T17:51:26.292Z,98950.09
2023-01-21T17:54:00.036Z,98950.34
2023-01-21T17:56:51.145Z,98944.13
2023-01-21T17:59:42.879Z,98935.03
2023-01-21T18:02:11.942Z,98927.66
2023-01-21T18:04:39.408Z,98938.09
2023-01-21T18:07:21.115Z,98928.50
2023-01-21T18:09:47.527Z,98937.06
2023-01-21T18:12:14.202Z,98929.41
2023-01-21T18:14:41.810Z,98914.88
2023-01-21T18:17:18.766Z,98914.13
2023-01-21T18:19:45.568Z,98916.75
2023-01-21T18:22:30.499Z,98900.59
2023-01-21T18:24:56.936Z,98916.50
2023-01-21T18:27:25.996Z,98896.91
2023-01-21T18:29:53.401Z,98888.25
2023-01-21T18:32:19.940Z,98904.63
2023-01-21T18:34:46.879Z,98921.00
2023-01-21T18:37:14.882Z,98924.31
2023-01-21T18:39:41.600Z,98917.81
2023-01-21T18:42:16.267Z,98915.06
2023-01-21T18:44:43.150Z,98908.50
2023-01-21T18:47:12.378Z,98908.00
2023-01-21T18:49:38.823Z,98904.63
2023-01-21T18:52:06.134Z,98902.97
2023-01-21T18:54:33.089Z,98904.06
2023-01-21T18:57:01.001Z,98896.22
2023-01-21T18:59:27.850Z,98892.88
2023-01-21T19:01:54.580Z,98880.59
2023-01-21T19:04:21.538Z,98862.03
2023-01-21T19:06:50.481Z,98855.72
2023-01-21T19:09:22.896Z,98841.97
2023-01-21T19:11:49.941Z,98832.53
2023-01-21T19:14:16.451Z,98818.94
2023-01-21T19:16:44.333Z,98812.13
2023-01-21T19:19:16.223Z,98790.38
2023-01-21T19:21:43.054Z,98792.63
2023-01-21T19:24:11.916Z,98777.34
2023-01-21T19:26:38.963Z,98745.84
2023-01-21T19:29:07.678Z,98764.25
2023-01-21T19:31:34.185Z,98687.25
2023-01-21T19:34:00.727Z,98731.03
2023-01-21T19:36:27.206Z,98709.22
2023-01-21T19:38:56.919Z,98704.19
2023-01-21T19:41:23.848Z,98704.69
2023-01-21T19:43:50.515Z,98689.91
2023-01-21T19:46:18.346Z,98676.31
2023-01-21T19:48:45.173Z,98641.91
2023-01-21T19:51:11.729Z,98633.78
2023-01-21T19:53:38.175Z,98631.13
2023-01-21T19:56:05.126Z,98604.47
2023-01-21T19:58:32.433Z,98594.72
2023-01-21T20:00:58.894Z,98592.97
2023-01-21T20:03:26.103Z,98572.19
2023-01-21T20:05:57.334Z,98598.41
2023-01-21T20:08:27.397Z,98581.47
2023-01-21T20:10:53.870Z,98575.53
2023-01-21T20:13:20.373Z,98540.00
2023-01-21T20:15:49.174Z,98548.97
2023-01-21T20:18:25.322Z,98520.69
2023-01-21T20:20:52.961Z,98521.50
2023-01-21T20:23:21.050Z,98513.16
2023-01-21T20:25:56.664Z,98509.25
2023-01-21T20:28:33.739Z,98512.94
2023-01-21T20:31:03.410Z,98503.75
2023-01-21T20:33:29.957Z,98497.69
2023-01-21T20:35:57.582Z,98493.25
2023-01-21T20:38:30.811Z,98466.91
2023-01-21T20:40:58.524Z,98460.88
2023-01-21T20:43:25.019Z,98469.16
2023-01-21T20:45:52.141Z,98467.84
2023-01-21T20:48:25.338Z,98459.31
2023-01-21T20:50:52.131Z,98464.16
2023-01-21T20:53:19.031Z,98467.28
2023-01-21T20:55:48.330Z,98465.25
2023-01-21T20:58:16.656Z,98451.31
2023-01-21T21:00:45.359Z,98435.09
2023-01-21T21:03:13.973Z,98444.81
2023-01-21T21:05:40.641Z,98442.00
2023-01-21T21:08:10.166Z,98422.66
2023-01-21T21:10:36.580Z,98422.75
2023-01-21T21:13:04.010Z,98436.78
2023-01-21T21:15:33.544Z,98425.75
2023-01-21T21:18:00.685Z,98430.84
2023-01-21T21:20:33.110Z,98415.03
2023-01-21T21:22:59.916Z,98428.78
2023-01-21T21:25:28.507Z,98430.00
2023-01-21T21:27:55.819Z,98433.25
2023-01-21T21:30:26.256Z,98436.41
2023-01-21T21:32:53.318Z,98423.41
2023-01-21T21:35:28.046Z,98424.59
2023-01-21T21:37:56.705Z,98434.38
2023-01-21T21:40:25.464Z,98435.31
2023-01-21T21:43:11.074Z,98434.47
2023-01-21T21:45:41.184Z,98448.59
2023-01-21T21:48:39.212Z,98426.00
2023-01-21T21:51:07.167Z,98441.16
2023-01-21T21:53:33.782Z,98451.31
2023-01-21T21:56:02.838Z,98437.69
2023-01-21T21:58:29.318Z,98458.47
2023-01-21T22:00:55.915Z,98469.81
2023-01-21T22:03:22.414Z,98452.78
2023-01-21T22:05:53.739Z,98471.00
2023-01-21T22:08:20.206Z,98477.91
2023-01-21T22:10:55.956Z,98479.75
2023-01-21T22:13:22.373Z,98450.94
2023-01-21T22:16:00.647Z,98471.94
2023-01-21T22:18:29.348Z,98479.31
2023-01-21T22:21:06.841Z,98476.22
2023-01-21T22:23:35.414Z,98487.75
2023-01-21T22:26:02.744Z,98500.41
2023-01-21T22:28:29.432Z,98491.31
2023-01-21T22:31:02.426Z,98500.97
2023-01-21T22:33:28.963Z,98505.06
2023-01-21T22:35:55.379Z,98506.09
2023-01-21T22:38:21.885Z,98522.56
2023-01-21T22:40:55.164Z,98526.28
2023-01-21T22:43:21.995Z,98533.00
2023-01-21T22:45:50.167Z,98537.44
2023-01-21T22:48:18.450Z,98521.44
2023-01-21T22:50:51.115Z,98550.84
2023-01-21T22:53:17.722Z,98545.63
2023-01-21T22:55:44.109Z,98555.84
2023-01-21T22:58:10.563Z,98577.53
2023-01-21T23:00:39.652Z,98570.84
2023-01-21T23:03:07.822Z,98579.22
2023-01-21T23:05:35.359Z,98577.47
2023-01-21T23:08:02.040Z,98580.44
2023-01-21T23:10:28.505Z,98587.72
2023-01-21T23:12:55.015Z,98596.44
2023-01-21T23:15:22.634Z,98595.53
2023-01-21T23:17:49.656Z,98601.47
2023-01-21T23:20:16.872Z,98605.00
2023-01-21T23:22:43.549Z,98610.22
2023-01-21T23:25:12.740Z,98610.78
2023-01-21T23:27:39.356Z,98617.09
2023-01-21T23:30:07.171Z,98608.50
2023-01-21T23:32:33.769Z,98629.38
2023-01-21T23:35:00.188Z,98625.28
2023-01-21T23:37:26.652Z,98607.72
2023-01-21T23:39:53.141Z,98621.25
2023-01-21T23:42:19.726Z,98624.19
2023-01-21T23:44:46.224Z,98604.78
2023-01-21T23:47:12.688Z,98623.41
2023-01-21T23:49:39.212Z,98627.41
2023-01-21T23:52:08.228Z,98629.38
2023-01-21T23:54:34.662Z,98628.91
2023-01-21T23:57:01.066Z,98617.06
2023-01-21T23:59:27.627Z,98623.59
